createdAt,value
2022-08-03T00:02:18.962Z,18.40
2022-08-03T00:04:47.269Z,18.40
2022-08-03T00:07:14.853Z,18.30
2022-08-03T00:09:42.235Z,18.30
2022-08-03T00:12:09.840Z,18.30
2022-08-03T00:14:37.404Z,18.30
2022-08-03T00:17:04.718Z,18.40
2022-08-03T00:19:32.080Z,18.30
2022-08-03T00:22:00.647Z,18.30
2022-08-03T00:24:27.971Z,18.20
2022-08-03T00:26:55.270Z,18.20
2022-08-03T00:29:22.686Z,18.20
2022-08-03T00:31:52.608Z,18.10
2022-08-03T00:34:34.575Z,18.20
2022-08-03T00:37:04.156Z,18.10
2022-08-03T00:39:31.457Z,18.10
2022-08-03T00:42:03.003Z,18.10
2022-08-03T00:44:30.760Z,18.10
2022-08-03T00:46:58.260Z,18.10
2022-08-03T00:49:28.470Z,18.10
2022-08-03T00:51:56.301Z,18.00
2022-08-03T00:54:25.023Z,18.00
2022-08-03T00:56:59.693Z,17.90
2022-08-03T00:59:27.824Z,17.80
2022-08-03T01:01:55.067Z,17.80
2022-08-03T01:04:22.515Z,17.90
2022-08-03T01:06:58.748Z,18.10
2022-08-03T01:10:13.423Z,18.20
2022-08-03T01:12:53.794Z,18.20
2022-08-03T01:15:36.339Z,18.20
2022-08-03T01:18:15.003Z,18.20
2022-08-03T01:20:47.274Z,18.20
2022-08-03T01:23:29.574Z,18.40
2022-08-03T01:26:12.530Z,18.30
2022-08-03T01:28:58.453Z,18.20
2022-08-03T01:31:37.037Z,18.20
2022-08-03T01:34:29.518Z,18.20
2022-08-03T01:36:59.790Z,18.10
2022-08-03T01:39:28.929Z,18.10
2022-08-03T01:42:01.033Z,18.00
2022-08-03T01:44:33.921Z,18.00
2022-08-03T01:47:03.242Z,18.00
2022-08-03T01:49:34.047Z,18.00
2022-08-03T01:52:05.378Z,18.00
2022-08-03T01:54:37.014Z,17.90
2022-08-03T01:57:04.827Z,17.80
2022-08-03T01:59:35.575Z,17.80
2022-08-03T02:02:15.525Z,17.70
2022-08-03T02:04:55.632Z,17.70
2022-08-03T02:07:25.866Z,17.80
2022-08-03T02:09:55.546Z,17.70
2022-08-03T02:12:25.718Z,17.60
2022-08-03T02:14:54.070Z,17.60
2022-08-03T02:17:38.581Z,17.60
2022-08-03T02:20:09.131Z,17.50
2022-08-03T02:22:40.443Z,17.40
2022-08-03T02:25:09.974Z,17.40
2022-08-03T02:27:43.693Z,17.40
2022-08-03T02:30:12.644Z,17.30
2022-08-03T02:32:48.211Z,17.20
2022-08-03T02:35:18.530Z,17.20
2022-08-03T02:38:01.010Z,17.10
2022-08-03T02:40:30.201Z,17.10
2022-08-03T02:43:02.752Z,17.10
2022-08-03T02:45:32.370Z,17.10
2022-08-03T02:48:02.889Z,17.10
2022-08-03T02:50:33.481Z,17.00
2022-08-03T02:53:02.958Z,17.00
2022-08-03T02:55:31.899Z,16.90
2022-08-03T02:58:01.351Z,17.00
2022-08-03T03:00:31.672Z,16.90
2022-08-03T03:03:01.450Z,16.90
2022-08-03T03:05:56.453Z,16.90
2022-08-03T03:08:25.811Z,16.80
2022-08-03T03:10:56.326Z,16.80
2022-08-03T03:13:24.620Z,16.70
2022-08-03T03:15:53.247Z,16.80
2022-08-03T03:18:22.782Z,16.80
2022-08-03T03:20:52.930Z,16.70
2022-08-03T03:23:23.284Z,16.70
2022-08-03T03:25:52.210Z,16.70
2022-08-03T03:28:20.746Z,16.60
2022-08-03T03:30:53.199Z,16.50
2022-08-03T03:33:22.123Z,16.50
2022-08-03T03:35:50.132Z,16.40
2022-08-03T03:38:18.165Z,16.50
2022-08-03T03:40:46.143Z,16.50
2022-08-03T03:43:13.630Z,16.50
2022-08-03T03:45:42.375Z,16.50
2022-08-03T03:48:09.803Z,16.50
2022-08-03T03:50:40.735Z,16.50
2022-08-03T03:53:14.066Z,16.60
2022-08-03T03:55:59.603Z,16.60
2022-08-03T03:58:30.959Z,16.70
2022-08-03T04:00:58.343Z,16.60
2022-08-03T04:03:25.691Z,16.60
2022-08-03T04:06:13.359Z,16.60
2022-08-03T04:09:18.998Z,16.70
2022-08-03T04:11:51.361Z,16.70
2022-08-03T04:14:29.616Z,16.80
2022-08-03T04:17:01.671Z,16.70
2022-08-03T04:19:36.807Z,16.70
2022-08-03T04:22:12.138Z,16.70
2022-08-03T04:24:49.747Z,16.80
2022-08-03T04:27:21.914Z,17.00
2022-08-03T04:29:51.873Z,17.30
2022-08-03T04:32:20.273Z,18.00
2022-08-03T04:34:47.822Z,18.60
2022-08-03T04:37:23.107Z,19.30
2022-08-03T04:39:52.355Z,20.00
2022-08-03T04:42:25.740Z,20.70
2022-08-03T04:44:58.932Z,21.20
2022-08-03T04:47:29.407Z,21.80
2022-08-03T04:49:56.778Z,22.30
2022-08-03T04:52:24.438Z,22.60
2022-08-03T04:54:52.740Z,23.00
2022-08-03T04:57:23.253Z,22.60
2022-08-03T05:00:02.025Z,21.70
2022-08-03T05:02:30.530Z,21.10
2022-08-03T05:04:58.222Z,20.70
2022-08-03T05:07:25.684Z,20.50
2022-08-03T05:10:01.787Z,20.20
2022-08-03T05:12:33.555Z,20.10
2022-08-03T05:15:02.118Z,19.90
2022-08-03T05:17:29.421Z,19.80
2022-08-03T05:19:57.222Z,19.80
2022-08-03T05:22:24.518Z,19.80
2022-08-03T05:24:52.163Z,19.80
2022-08-03T05:27:19.648Z,19.80
2022-08-03T05:29:48.076Z,19.70
2022-08-03T05:32:16.375Z,19.70
2022-08-03T05:34:43.859Z,19.80
2022-08-03T05:37:11.732Z,19.80
2022-08-03T05:39:39.310Z,19.80
2022-08-03T05:42:06.685Z,19.90
2022-08-03T05:44:34.306Z,19.90
2022-08-03T05:47:01.624Z,20.60
2022-08-03T05:49:29.035Z,22.20
2022-08-03T05:52:12.106Z,24.20
2022-08-03T05:54:56.605Z,25.90
2022-08-03T05:57:27.920Z,26.60
2022-08-03T05:59:58.694Z,27.90
2022-08-03T06:02:29.466Z,29.10
2022-08-03T06:04:56.899Z,29.90
2022-08-03T06:07:24.261Z,30.40
2022-08-03T06:10:35.455Z,30.90
2022-08-03T06:12:41.187Z,31.70
2022-08-03T06:15:11.435Z,32.50
2022-08-03T06:17:49.563Z,33.10
2022-08-03T06:20:18.850Z,33.50
2022-08-03T06:22:51.358Z,34.10
2022-08-03T06:25:29.110Z,34.60
2022-08-03T06:27:56.767Z,34.40
2022-08-03T06:30:24.134Z,34.70
2022-08-03T06:32:52.318Z,35.50
2022-08-03T06:35:20.296Z,35.80
2022-08-03T06:37:49.761Z,36.60
2022-08-03T06:40:21.566Z,36.40
2022-08-03T06:42:49.267Z,36.10
2022-08-03T06:45:17.660Z,36.50
2022-08-03T06:47:45.021Z,36.60
2022-08-03T06:50:14.250Z,37.00
2022-08-03T06:52:45.460Z,37.60
2022-08-03T06:55:12.928Z,37.80
2022-08-03T06:57:40.292Z,38.60
2022-08-03T07:00:12.451Z,39.00
2022-08-03T07:02:40.552Z,38.90
2022-08-03T07:05:09.610Z,38.60
2022-08-03T07:07:37.706Z,38.80
2022-08-03T07:10:06.503Z,39.40
2022-08-03T07:12:34.970Z,39.90
2022-08-03T07:15:03.846Z,39.00
2022-08-03T07:17:33.623Z,38.90
2022-08-03T07:20:02.523Z,39.30
2022-08-03T07:22:29.958Z,39.10
2022-08-03T07:24:57.940Z,40.40
2022-08-03T07:27:27.031Z,39.70
2022-08-03T07:29:55.373Z,39.90
2022-08-03T07:32:23.458Z,40.20
2022-08-03T07:34:51.167Z,40.60
2022-08-03T07:37:18.745Z,41.30
2022-08-03T07:39:46.080Z,42.00
2022-08-03T07:42:13.496Z,41.60
2022-08-03T07:44:41.169Z,41.60
2022-08-03T07:47:09.186Z,42.20
2022-08-03T07:49:41.199Z,42.60
2022-08-03T07:52:28.482Z,42.80
2022-08-03T07:54:56.081Z,42.20
2022-08-03T07:57:23.649Z,42.00
2022-08-03T08:00:01.435Z,42.30
2022-08-03T08:02:39.760Z,42.30
2022-08-03T08:05:07.597Z,42.50
2022-08-03T08:07:34.921Z,42.70
2022-08-03T08:10:02.292Z,43.30
2022-08-03T08:12:29.945Z,43.40
2022-08-03T08:14:57.444Z,43.00
2022-08-03T08:17:24.824Z,42.30
2022-08-03T08:19:53.360Z,43.00
2022-08-03T08:22:29.796Z,43.60
2022-08-03T08:24:59.450Z,43.40
2022-08-03T08:27:26.982Z,43.70
2022-08-03T08:29:58.878Z,43.20
2022-08-03T08:32:29.920Z,42.90
2022-08-03T08:34:57.848Z,43.50
2022-08-03T08:37:25.215Z,44.80
2022-08-03T08:39:52.630Z,45.10
2022-08-03T08:42:19.928Z,45.20
2022-08-03T08:44:47.275Z,44.10
2022-08-03T08:47:15.545Z,42.70
2022-08-03T08:49:53.570Z,42.20
2022-08-03T08:52:31.877Z,43.80
2022-08-03T08:55:04.925Z,44.30
2022-08-03T08:57:44.207Z,44.50
2022-08-03T09:00:15.455Z,43.90
2022-08-03T09:02:44.175Z,44.30
2022-08-03T09:05:14.254Z,44.10
2022-08-03T09:07:43.222Z,44.40
2022-08-03T09:10:13.881Z,44.70
2022-08-03T09:12:47.080Z,45.30
2022-08-03T09:15:19.124Z,44.70
2022-08-03T09:17:50.849Z,45.30
2022-08-03T09:20:19.859Z,45.10
2022-08-03T09:22:56.302Z,44.80
2022-08-03T09:25:42.611Z,45.70
2022-08-03T09:28:52.505Z,46.10
2022-08-03T09:31:04.444Z,44.90
2022-08-03T09:33:35.946Z,44.70
2022-08-03T09:36:03.940Z,44.60
2022-08-03T09:38:31.300Z,44.60
2022-08-03T09:41:00.815Z,44.40
2022-08-03T09:43:29.258Z,44.60
2022-08-03T09:46:07.645Z,44.00
2022-08-03T09:48:36.796Z,43.90
2022-08-03T09:51:14.257Z,43.30
2022-08-03T09:53:59.255Z,44.50
2022-08-03T09:56:47.338Z,44.90
2022-08-03T09:59:30.833Z,43.40
2022-08-03T10:01:58.759Z,44.00
2022-08-03T10:04:26.744Z,44.10
2022-08-03T10:07:09.334Z,43.70
2022-08-03T10:09:38.013Z,44.00
2022-08-03T10:12:12.630Z,44.70
2022-08-03T10:14:45.742Z,44.60
2022-08-03T10:17:13.545Z,43.90
2022-08-03T10:19:41.511Z,43.50
2022-08-03T10:22:39.840Z,42.00
2022-08-03T10:25:14.425Z,41.40
2022-08-03T10:27:47.241Z,40.80
2022-08-03T10:30:14.767Z,41.70
2022-08-03T10:32:49.366Z,41.40
2022-08-03T10:35:21.554Z,41.20
2022-08-03T10:37:57.174Z,41.00
2022-08-03T10:43:27.477Z,41.20
2022-08-03T10:45:56.083Z,40.20
2022-08-03T10:48:24.079Z,37.80
2022-08-03T10:50:52.202Z,36.20
2022-08-03T10:53:36.449Z,35.50
2022-08-03T10:56:35.668Z,34.40
2022-08-03T10:59:10.648Z,34.10
2022-08-03T11:01:58.842Z,34.00
2022-08-03T11:04:27.195Z,33.90
2022-08-03T11:07:24.276Z,33.80
2022-08-03T11:09:56.142Z,33.50
2022-08-03T11:12:32.211Z,33.40
2022-08-03T11:15:02.483Z,33.40
2022-08-03T11:17:30.399Z,33.40
2022-08-03T11:19:58.601Z,33.20
2022-08-03T11:22:50.972Z,33.00
2022-08-03T11:25:53.737Z,32.90
2022-08-03T11:28:28.543Z,32.50
2022-08-03T11:30:56.145Z,32.40
2022-08-03T11:33:30.796Z,32.40
2022-08-03T11:36:00.677Z,32.30
2022-08-03T11:38:28.631Z,32.30
2022-08-03T11:40:55.966Z,32.40
2022-08-03T11:43:30.678Z,32.40
2022-08-03T11:46:05.347Z,32.30
2022-08-03T11:48:36.611Z,32.50
2022-08-03T11:51:06.342Z,32.30
2022-08-03T11:53:41.719Z,32.30
2022-08-03T11:56:12.924Z,32.30
2022-08-03T11:59:02.757Z,32.40
2022-08-03T12:01:36.215Z,32.60
2022-08-03T12:04:05.379Z,32.80
2022-08-03T12:06:54.884Z,32.90
2022-08-03T12:09:22.644Z,32.80
2022-08-03T12:11:59.941Z,32.80
2022-08-03T12:14:50.111Z,32.80
2022-08-03T12:17:19.508Z,32.60
2022-08-03T12:19:47.261Z,32.50
2022-08-03T12:22:16.752Z,32.50
2022-08-03T12:24:47.165Z,32.30
2022-08-03T12:27:26.425Z,32.40
2022-08-03T12:29:57.293Z,32.40
2022-08-03T12:32:30.637Z,32.30
2022-08-03T12:35:01.297Z,32.40
2022-08-03T12:37:29.650Z,32.50
2022-08-03T12:40:05.330Z,32.50
2022-08-03T12:42:39.582Z,32.50
2022-08-03T12:45:20.514Z,32.50
2022-08-03T12:47:59.415Z,32.00
2022-08-03T12:50:32.154Z,32.10
2022-08-03T12:53:01.919Z,32.10
2022-08-03T12:55:56.687Z,32.00
2022-08-03T12:58:35.609Z,32.10
2022-08-03T13:01:09.082Z,32.20
2022-08-03T13:03:45.847Z,32.10
2022-08-03T13:06:20.060Z,32.20
2022-08-03T13:08:48.355Z,32.10
2022-08-03T13:11:55.329Z,32.20
2022-08-03T13:14:19.362Z,32.10
2022-08-03T13:16:49.083Z,32.10
2022-08-03T13:19:16.544Z,32.20
2022-08-03T13:21:53.864Z,32.30
2022-08-03T13:24:33.614Z,32.30
2022-08-03T13:27:22.524Z,32.40
2022-08-03T13:29:50.180Z,32.40
2022-08-03T13:32:17.554Z,32.50
2022-08-03T13:34:45.119Z,32.50
2022-08-03T13:37:12.897Z,32.40
2022-08-03T13:39:57.681Z,32.30
2022-08-03T13:42:34.589Z,32.20
2022-08-03T13:45:03.000Z,32.30
2022-08-03T13:47:30.389Z,32.40
2022-08-03T13:50:01.646Z,32.60
2022-08-03T13:52:34.663Z,32.80
2022-08-03T13:55:04.390Z,32.90
2022-08-03T13:58:04.543Z,32.90
2022-08-03T14:00:27.640Z,33.00
2022-08-03T14:03:03.926Z,32.90
2022-08-03T14:05:33.361Z,32.90
2022-08-03T14:08:03.909Z,32.80
2022-08-03T14:10:36.284Z,32.60
2022-08-03T14:13:04.746Z,32.70
2022-08-03T14:15:32.225Z,32.60
2022-08-03T14:18:04.901Z,32.40
2022-08-03T14:20:36.598Z,32.10
2022-08-03T14:23:07.259Z,32.20
2022-08-03T14:25:44.325Z,32.30
2022-08-03T14:28:19.045Z,32.30
2022-08-03T14:30:46.538Z,32.30
2022-08-03T14:33:13.969Z,32.40
2022-08-03T14:35:41.364Z,32.30
2022-08-03T14:38:08.699Z,32.20
2022-08-03T14:40:36.139Z,32.10
2022-08-03T14:43:03.482Z,32.10
2022-08-03T14:45:31.090Z,32.00
2022-08-03T14:50:32.949Z,31.90
2022-08-03T14:50:51.366Z,31.80
2022-08-03T14:53:19.807Z,31.60
2022-08-03T14:55:50.729Z,31.50
2022-08-03T14:58:23.597Z,31.40
2022-08-03T15:00:52.419Z,31.30
2022-08-03T15:03:23.575Z,31.30
2022-08-03T15:05:55.930Z,31.30
2022-08-03T15:08:25.244Z,31.30
2022-08-03T15:10:54.512Z,31.40
2022-08-03T15:13:22.589Z,31.50
2022-08-03T15:15:51.695Z,31.50
2022-08-03T15:18:20.136Z,31.40
2022-08-03T15:20:49.476Z,31.30
2022-08-03T15:23:18.321Z,31.30
2022-08-03T15:26:31.914Z,31.30
2022-08-03T15:28:34.228Z,31.20
2022-08-03T15:31:06.329Z,31.20
2022-08-03T15:33:33.771Z,31.20
2022-08-03T15:36:03.491Z,31.00
2022-08-03T15:38:30.895Z,31.00
2022-08-03T15:40:59.008Z,31.00
2022-08-03T15:43:26.467Z,31.00
2022-08-03T15:46:19.463Z,30.90
2022-08-03T15:48:41.626Z,30.90
2022-08-03T15:51:10.232Z,30.90
2022-08-03T15:53:37.960Z,31.00
2022-08-03T15:56:11.382Z,31.10
2022-08-03T15:59:04.664Z,31.00
2022-08-03T16:01:28.322Z,30.90
2022-08-03T16:03:55.985Z,30.90
2022-08-03T16:06:29.880Z,30.80
2022-08-03T16:09:23.678Z,30.80
2022-08-03T16:11:55.576Z,30.90
2022-08-03T16:14:34.839Z,30.80
2022-08-03T16:17:07.738Z,30.80
2022-08-03T16:19:35.652Z,30.80
2022-08-03T16:22:03.335Z,30.80
2022-08-03T16:24:30.974Z,30.80
2022-08-03T16:27:00.578Z,30.80
2022-08-03T16:29:28.585Z,30.70
2022-08-03T16:31:55.888Z,30.60
2022-08-03T16:34:23.287Z,30.60
2022-08-03T16:36:51.181Z,30.50
2022-08-03T16:39:18.555Z,30.50
2022-08-03T16:41:53.622Z,30.40
2022-08-03T16:44:30.649Z,30.30
2022-08-03T16:46:59.392Z,30.30
2022-08-03T16:49:54.780Z,30.30
2022-08-03T16:52:14.344Z,30.20
2022-08-03T16:54:46.014Z,30.30
2022-08-03T16:57:56.040Z,30.30
2022-08-03T17:00:11.859Z,30.40
2022-08-03T17:02:42.858Z,30.40
2022-08-03T17:05:15.752Z,30.40
2022-08-03T17:07:50.513Z,30.20
2022-08-03T17:10:26.959Z,30.30
2022-08-03T17:12:55.049Z,30.30
2022-08-03T17:15:38.035Z,30.20
2022-08-03T17:18:17.683Z,30.20
2022-08-03T17:20:46.238Z,30.20
2022-08-03T17:23:54.507Z,30.10
2022-08-03T17:26:24.099Z,30.10
2022-08-03T17:29:11.479Z,30.10
2022-08-03T17:31:49.449Z,30.10
2022-08-03T17:34:18.696Z,30.20
2022-08-03T17:37:03.713Z,30.20
2022-08-03T17:39:57.033Z,30.10
2022-08-03T17:42:38.794Z,30.10
2022-08-03T17:45:07.301Z,30.00
2022-08-03T17:47:42.133Z,29.90
2022-08-03T17:50:24.235Z,29.80
2022-08-03T17:53:24.463Z,29.70
2022-08-03T17:56:07.127Z,29.60
2022-08-03T17:59:10.898Z,29.50
2022-08-03T18:02:14.465Z,29.40
2022-08-03T18:05:16.387Z,29.30
2022-08-03T18:08:00.875Z,29.30
2022-08-03T18:10:35.618Z,29.30
2022-08-03T18:13:13.572Z,29.20
2022-08-03T18:15:49.537Z,29.20
2022-08-03T18:18:32.361Z,29.10
2022-08-03T18:21:06.702Z,29.00
2022-08-03T18:23:38.250Z,28.90
2022-08-03T18:26:12.287Z,28.80
2022-08-03T18:28:41.484Z,28.70
2022-08-03T18:32:00.191Z,28.60
2022-08-03T18:34:16.859Z,28.50
2022-08-03T18:36:48.495Z,28.40
2022-08-03T18:39:16.740Z,28.30
2022-08-03T18:41:47.134Z,28.20
2022-08-03T18:44:45.673Z,28.10
2022-08-03T18:47:21.076Z,28.10
2022-08-03T18:49:58.067Z,28.00
2022-08-03T18:52:52.953Z,28.00
2022-08-03T18:55:33.009Z,27.90
2022-08-03T18:58:18.623Z,27.80
2022-08-03T19:00:54.767Z,27.70
2022-08-03T19:03:25.359Z,27.60
2022-08-03T19:06:19.727Z,27.50
2022-08-03T19:09:09.501Z,27.40
2022-08-03T19:12:14.215Z,27.30
2022-08-03T19:15:03.175Z,27.20
2022-08-03T19:17:35.927Z,27.10
2022-08-03T19:20:09.034Z,27.00
2022-08-03T19:22:38.452Z,26.90
2022-08-03T19:25:07.623Z,26.80
2022-08-03T19:27:40.227Z,26.70
2022-08-03T19:30:21.979Z,26.70
2022-08-03T19:32:54.859Z,26.70
2022-08-03T19:35:51.655Z,26.60
2022-08-03T19:38:11.437Z,26.50
2022-08-03T19:40:44.286Z,26.40
2022-08-03T19:43:26.229Z,26.40
2022-08-03T19:46:07.664Z,26.30
2022-08-03T19:48:37.502Z,26.20
2022-08-03T19:51:12.120Z,26.20
2022-08-03T19:53:56.112Z,26.20
2022-08-03T19:56:25.231Z,26.20
2022-08-03T19:58:55.193Z,26.00
2022-08-03T20:01:23.916Z,25.80
2022-08-03T20:03:55.919Z,25.70
2022-08-03T20:06:23.858Z,25.60
2022-08-03T20:08:51.754Z,25.60
2022-08-03T20:11:20.528Z,25.60
2022-08-03T20:13:57.792Z,25.50
2022-08-03T20:16:26.430Z,25.40
2022-08-03T20:18:53.800Z,25.40
2022-08-03T20:21:27.322Z,25.40
2022-08-03T20:24:03.306Z,25.30
2022-08-03T20:26:53.349Z,25.20
2022-08-03T20:30:04.955Z,25.20
2022-08-03T20:32:18.010Z,25.20
2022-08-03T20:34:45.631Z,25.10
2022-08-03T20:37:16.916Z,25.10
2022-08-03T20:39:48.214Z,25.00
2022-08-03T20:42:21.664Z,25.00
2022-08-03T20:45:04.430Z,24.90
2022-08-03T20:47:39.136Z,24.80
2022-08-03T20:50:19.140Z,24.80
2022-08-03T20:52:50.538Z,24.90
2022-08-03T20:55:20.481Z,24.80
2022-08-03T20:58:07.070Z,24.80
2022-08-03T21:00:34.413Z,24.80
2022-08-03T21:03:01.992Z,24.60
2022-08-03T21:05:47.791Z,24.60
2022-08-03T21:08:16.400Z,24.60
2022-08-03T21:10:45.754Z,24.50
2022-08-03T21:13:18.841Z,24.60
2022-08-03T21:16:12.731Z,24.50
2022-08-03T21:18:43.382Z,24.50
2022-08-03T21:21:15.291Z,24.50
2022-08-03T21:23:48.712Z,24.50
2022-08-03T21:26:22.146Z,24.50
2022-08-03T21:28:52.051Z,24.40
2022-08-03T21:31:24.924Z,24.30
2022-08-03T21:33:58.024Z,24.30
2022-08-03T21:36:30.597Z,24.10
2022-08-03T21:38:59.658Z,24.00
2022-08-03T21:41:28.979Z,23.90
2022-08-03T21:43:56.875Z,23.90
2022-08-03T21:46:26.871Z,23.80
2022-08-03T21:50:07.141Z,23.70
2022-08-03T21:51:52.151Z,23.60
2022-08-03T21:54:21.583Z,23.60
2022-08-03T21:56:51.495Z,23.60
2022-08-03T21:59:20.149Z,23.60
2022-08-03T22:01:51.432Z,23.50
2022-08-03T22:04:50.899Z,23.50
2022-08-03T22:07:10.568Z,23.40
2022-08-03T22:09:38.059Z,23.40
2022-08-03T22:12:06.285Z,23.30
2022-08-03T22:14:33.948Z,23.20
2022-08-03T22:17:06.179Z,23.20
2022-08-03T22:19:33.895Z,23.10
2022-08-03T22:22:05.955Z,23.00
2022-08-03T22:24:35.865Z,22.90
2022-08-03T22:27:22.395Z,22.90
2022-08-03T22:29:52.414Z,22.90
2022-08-03T22:32:20.958Z,22.90
2022-08-03T22:34:49.349Z,22.80
2022-08-03T22:37:19.920Z,22.80
2022-08-03T22:39:50.135Z,22.70
2022-08-03T22:42:19.156Z,22.60
2022-08-03T22:44:49.650Z,22.50
2022-08-03T22:47:22.560Z,22.40
2022-08-03T22:50:31.627Z,22.40
2022-08-03T22:52:44.035Z,22.30
2022-08-03T22:55:24.510Z,22.30
2022-08-03T22:57:56.100Z,22.20
2022-08-03T23:00:24.528Z,22.20
2022-08-03T23:02:54.101Z,22.20
2022-08-03T23:06:01.530Z,22.30
2022-08-03T23:08:20.473Z,22.30
2022-08-03T23:10:50.011Z,22.30
2022-08-03T23:13:18.596Z,22.20
2022-08-03T23:15:55.057Z,22.20
2022-08-03T23:18:24.168Z,22.10
2022-08-03T23:20:59.935Z,22.10
2022-08-03T23:23:30.298Z,22.00
2022-08-03T23:26:13.404Z,22.00
2022-08-03T23:28:45.014Z,21.90
2022-08-03T23:31:14.725Z,21.90
2022-08-03T23:33:44.915Z,21.80
2022-08-03T23:36:30.494Z,21.60
2022-08-03T23:39:02.443Z,21.60
2022-08-03T23:41:34.103Z,21.50
2022-08-03T23:44:03.821Z,21.50
2022-08-03T23:46:32.454Z,21.40
2022-08-03T23:49:00.431Z,21.30
2022-08-03T23:52:03.029Z,21.20
2022-08-03T23:54:59.917Z,21.20
2022-08-03T23:57:51.307Z,21.20
